Terminal Aerodrome Forecast
Issued by NWS

Home | Current Version | Previous Version | Graphics & Text | Print | Product List | Glossary On
Versions: 1 2 3 4 5 6 7 8 9 10 11 12 13 14 15 16
488
FTUS43 KICT 271142
TAFSLN
TAF
KSLN 271142Z 2712/2812 14005KT P6SM SKC
     FM271600 15010KT P6SM OVC025
     FM271800 17014G20KT P6SM OVC025
     FM272300 17011KT P6SM BKN020
     FM281000 20009KT P6SM FEW020 BKN250=

USA.gov is the U.S. government's official web portal to all federal, state and local government web resources and services.